Time;durP1;ratioP1;P1;durP2;ratioP2;P2;SDS_P1;SDS_P2;PMS_P1;PMS_P2;Temp;Humidity;BMP_temperature;BMP_pressure;BME280_temperature;BME280_humidity;BME280_pressure;Samples;Min_cycle;Max_cycle;Signal;HPM_P1;HPM_P2
2021/07/06 00:00:32;;;;;;;6.95;5.95;;;;;;;25.61;46.94;98814.28;5032513;28;20536;-76
2021/07/06 00:02:58;;;;;;;7.93;6.72;;;;;;;25.47;46.93;98798.00;5032028;28;20112;-76
2021/07/06 00:05:24;;;;;;;8.20;6.30;;;;;;;25.66;46.84;98808.81;5032040;28;20076;-76
2021/07/06 00:07:50;;;;;;;6.35;5.75;;;;;;;25.68;46.67;98813.94;5032038;28;20179;-76
2021/07/06 00:10:17;;;;;;;7.65;6.78;;;;;;;25.75;46.65;98811.66;5032073;28;20040;-75
2021/07/06 00:12:44;;;;;;;6.75;6.03;;;;;;;25.63;46.58;98777.72;5032252;28;20041;-76
2021/07/06 00:15:12;;;;;;;6.57;6.00;;;;;;;25.83;46.07;98800.97;5032380;28;20021;-75
2021/07/06 00:17:38;;;;;;;7.10;6.50;;;;;;;25.88;46.30;98797.38;5032275;28;20025;-76
2021/07/06 00:20:09;;;;;;;7.25;6.53;;;;;;;25.65;46.24;98772.88;5032232;28;20022;-75
2021/07/06 00:22:36;;;;;;;6.80;6.18;;;;;;;25.90;46.34;98808.69;5032292;28;20033;-75
2021/07/06 00:25:03;;;;;;;6.75;6.15;;;;;;;25.92;46.25;98806.50;5030879;28;20029;-76
2021/07/06 00:27:29;;;;;;;6.90;6.28;;;;;;;25.89;46.35;98807.88;5031864;28;20030;-76
2021/07/06 00:29:54;;;;;;;6.70;6.10;;;;;;;25.70;46.52;98785.50;5031783;28;20570;-76
2021/07/06 00:32:20;;;;;;;6.72;6.15;;;;;;;25.75;46.39;98790.03;5032039;28;20021;-76
2021/07/06 00:34:45;;;;;;;6.97;6.07;;;;;;;25.55;46.38;98773.00;5031738;28;20021;-75
2021/07/06 00:37:10;;;;;;;6.75;6.10;;;;;;;25.81;46.46;98811.28;5031968;28;20075;-75
2021/07/06 00:39:36;;;;;;;6.78;6.18;;;;;;;25.42;46.08;98749.44;5031836;28;20029;-76
2021/07/06 00:42:06;;;;;;;6.32;5.72;;;;;;;25.33;46.15;98760.09;5031589;28;20160;-77
2021/07/06 00:44:31;;;;;;;7.45;6.75;;;;;;;25.02;46.33;98707.59;5030564;28;20041;-76
2021/07/06 00:46:57;;;;;;;7.65;6.50;;;;;;;25.39;46.74;98785.16;5030397;28;20134;-76
2021/07/06 00:49:22;;;;;;;6.97;6.38;;;;;;;25.34;46.44;98771.72;5031909;28;20673;-75
2021/07/06 00:51:48;;;;;;;7.43;6.43;;;;;;;25.47;46.56;98806.09;5031649;28;20025;-74
2021/07/06 00:54:13;;;;;;;7.57;6.47;;;;;;;25.26;46.57;98770.44;5031680;28;20387;-75
2021/07/06 00:56:40;;;;;;;6.75;6.15;;;;;;;25.10;47.14;98750.16;5031558;28;20018;-75
2021/07/06 00:59:06;;;;;;;6.78;6.22;;;;;;;24.89;47.04;98716.41;5031564;28;20035;-74
2021/07/06 01:01:31;;;;;;;7.38;6.68;;;;;;;25.38;46.76;98796.25;5031194;28;20022;-74
2021/07/06 01:03:57;;;;;;;6.90;6.35;;;;;;;25.27;46.77;98788.28;5031253;28;20014;-76
2021/07/06 01:06:22;;;;;;;7.32;6.47;;;;;;;25.13;46.79;98759.56;5029993;28;20033;-76
2021/07/06 01:08:48;;;;;;;7.40;6.68;;;;;;;25.53;46.94;98814.94;5031519;28;20097;-76
2021/07/06 01:11:14;;;;;;;6.93;6.22;;;;;;;25.40;47.27;98810.28;5031526;28;20025;-76
2021/07/06 01:13:40;;;;;;;7.30;6.68;;;;;;;25.48;47.08;98817.72;5031244;28;20021;-77
2021/07/06 01:16:06;;;;;;;7.88;6.63;;;;;;;25.07;47.25;98763.44;5029955;28;20025;-75
2021/07/06 01:18:32;;;;;;;10.27;6.60;;;;;;;25.35;47.57;98805.75;5031033;28;20564;-77
2021/07/06 01:20:57;;;;;;;8.02;6.03;;;;;;;25.02;47.31;98757.00;5031111;28;20017;-76
2021/07/06 01:23:26;;;;;;;7.63;6.97;;;;;;;25.01;47.34;98755.41;5031356;28;20022;-75
2021/07/06 01:25:55;;;;;;;7.22;6.53;;;;;;;25.33;47.69;98810.63;5029968;28;20026;-75
2021/07/06 01:28:21;;;;;;;6.65;6.05;;;;;;;25.29;47.44;98815.81;5030999;28;20025;-75
2021/07/06 01:30:46;;;;;;;8.70;6.40;;;;;;;25.01;47.68;98768.09;5029556;28;20144;-75
2021/07/06 01:33:23;;;;;;;7.82;6.45;;;;;;;24.93;47.85;98766.84;5031110;28;20108;-75
2021/07/06 01:35:50;;;;;;;6.53;5.97;;;;;;;25.20;47.70;98814.84;5031099;28;20021;-76
2021/07/06 01:38:15;;;;;;;8.10;6.47;;;;;;;24.99;47.59;98778.41;5031079;28;20071;-76
2021/07/06 01:40:41;;;;;;;6.75;6.15;;;;;;;25.11;48.00;98816.59;5033467;28;20018;-76
2021/07/06 01:43:06;;;;;;;6.60;6.05;;;;;;;24.78;47.87;98777.84;5035102;28;20409;-75
2021/07/06 01:45:32;;;;;;;6.82;6.22;;;;;;;24.89;47.98;98771.22;5035000;28;20030;-76
2021/07/06 01:48:00;;;;;;;7.03;5.88;;;;;;;25.25;47.85;98833.69;5034798;28;20026;-75
2021/07/06 01:50:27;;;;;;;6.88;6.28;;;;;;;25.27;47.84;98830.72;5033373;28;20029;-75
2021/07/06 01:52:57;;;;;;;7.07;6.28;;;;;;;25.32;47.87;98834.16;5033802;28;20029;-76
2021/07/06 01:55:25;;;;;;;6.97;6.28;;;;;;;25.14;47.81;98805.19;5034836;28;20025;-75
2021/07/06 01:57:52;;;;;;;7.93;6.40;;;;;;;25.26;47.79;98824.47;5034607;28;20033;-76
2021/07/06 02:00:20;;;;;;;7.70;6.00;;;;;;;25.37;47.33;98840.59;5034813;28;20096;-76
2021/07/06 02:02:45;;;;;;;7.10;6.53;;;;;;;25.34;47.64;98831.97;5034874;28;20064;-75
2021/07/06 02:05:14;;;;;;;7.47;6.88;;;;;;;25.26;47.78;98848.81;5033599;28;20056;-75
2021/07/06 02:07:40;;;;;;;8.18;7.43;;;;;;;25.09;48.21;98845.78;5034704;28;20099;-76
2021/07/06 02:10:06;;;;;;;7.63;6.82;;;;;;;25.09;48.38;98829.59;5034626;28;20079;-76
2021/07/06 02:12:32;;;;;;;7.20;6.50;;;;;;;25.15;48.40;98858.13;5034427;28;20489;-75
2021/07/06 02:14:58;;;;;;;8.85;7.90;;;;;;;24.60;48.43;98752.41;5034527;28;20033;-75
2021/07/06 02:17:24;;;;;;;8.50;7.65;;;;;;;24.79;48.64;98792.94;5034568;28;20513;-76
2021/07/06 02:19:49;;;;;;;8.70;7.55;;;;;;;25.09;48.81;98837.69;5034286;28;20058;-76
2021/07/06 02:22:15;;;;;;;8.77;7.97;;;;;;;24.75;48.65;98791.09;5034278;28;20021;-75
2021/07/06 02:24:40;;;;;;;8.07;7.30;;;;;;;24.77;48.64;98805.13;5034464;28;20457;-76
2021/07/06 02:27:05;;;;;;;7.80;7.05;;;;;;;24.69;48.79;98803.88;5032812;28;20025;-76
2021/07/06 02:29:31;;;;;;;7.40;6.60;;;;;;;24.61;48.52;98778.31;5034212;28;20060;-76
2021/07/06 02:31:56;;;;;;;8.02;7.22;;;;;;;24.61;48.63;98786.41;5034067;28;20022;-75
2021/07/06 02:34:22;;;;;;;8.70;7.85;;;;;;;25.00;48.98;98851.03;5033888;28;20487;-75
2021/07/06 02:36:47;;;;;;;7.75;7.07;;;;;;;24.52;48.88;98782.72;5034062;28;20021;-75
2021/07/06 02:39:12;;;;;;;8.23;7.35;;;;;;;24.95;49.31;98861.06;5033834;28;20017;-75
2021/07/06 02:41:38;;;;;;;8.32;7.60;;;;;;;24.70;49.33;98827.88;5033725;28;20071;-76
2021/07/06 02:44:04;;;;;;;8.48;7.78;;;;;;;24.80;49.49;98855.84;5033849;28;20017;-76
2021/07/06 02:46:29;;;;;;;7.72;7.13;;;;;;;24.70;49.38;98841.38;5033937;28;20033;-75
2021/07/06 02:48:54;;;;;;;8.55;7.75;;;;;;;24.71;49.50;98845.69;5033767;28;20049;-76
2021/07/06 02:51:20;;;;;;;8.15;7.10;;;;;;;24.77;49.37;98859.13;5032617;28;20052;-75
2021/07/06 02:53:46;;;;;;;7.82;7.13;;;;;;;24.53;49.48;98816.75;5033828;28;20028;-75
2021/07/06 02:56:12;;;;;;;7.85;7.15;;;;;;;24.71;49.50;98844.88;5033611;28;20018;-76
2021/07/06 02:58:38;;;;;;;7.88;7.07;;;;;;;24.81;49.06;98857.47;5033683;28;20037;-75
2021/07/06 03:01:03;;;;;;;8.13;7.32;;;;;;;24.93;49.28;98879.44;5033767;28;20025;-75
2021/07/06 03:03:29;;;;;;;8.60;7.30;;;;;;;24.71;49.44;98842.97;5033414;28;20040;-76
2021/07/06 03:05:54;;;;;;;7.22;6.63;;;;;;;24.70;49.04;98838.66;5032027;28;20494;-77
2021/07/06 03:08:19;;;;;;;8.10;7.30;;;;;;;24.94;48.96;98878.38;5033428;28;20022;-75
2021/07/06 03:10:45;;;;;;;7.53;6.85;;;;;;;24.90;48.99;98864.63;5033200;28;20044;-75
2021/07/06 03:13:10;;;;;;;11.60;7.18;;;;;;;24.69;48.90;98847.88;5033191;28;20025;-75
2021/07/06 03:15:37;;;;;;;9.57;7.88;;;;;;;24.58;49.14;98827.47;5033198;28;20026;-75
2021/07/06 03:18:05;;;;;;;8.32;7.60;;;;;;;24.83;49.11;98858.78;5031982;28;20021;-75
2021/07/06 03:20:32;;;;;;;7.30;6.68;;;;;;;25.03;49.03;98900.97;5033390;28;20139;-75
2021/07/06 03:22:58;;;;;;;7.93;7.15;;;;;;;24.98;49.14;98888.34;5033206;28;20482;-75
2021/07/06 03:25:25;;;;;;;7.93;7.13;;;;;;;24.95;49.20;98915.06;5032846;28;20021;-76
2021/07/06 03:27:51;;;;;;;8.90;7.10;;;;;;;24.89;48.96;98894.63;5033171;28;20026;-75
2021/07/06 03:30:20;;;;;;;7.78;7.10;;;;;;;24.94;48.81;98892.66;5033023;28;20026;-75
2021/07/06 03:32:47;;;;;;;8.38;6.80;;;;;;;24.99;48.80;98916.94;5032814;28;20108;-76
2021/07/06 03:35:12;;;;;;;9.18;6.43;;;;;;;24.39;48.66;98799.59;5032780;28;20053;-75
2021/07/06 03:37:38;;;;;;;7.25;6.57;;;;;;;24.80;48.72;98863.94;5032875;28;20067;-76
2021/07/06 03:40:07;;;;;;;7.32;6.30;;;;;;;24.83;48.67;98882.28;5032773;28;20044;-75
2021/07/06 03:42:33;;;;;;;8.32;7.15;;;;;;;24.67;48.49;98850.03;5032517;28;20029;-76
2021/07/06 03:44:59;;;;;;;7.50;6.22;;;;;;;24.67;48.46;98858.16;5032551;28;20040;-76
2021/07/06 03:47:24;;;;;;;7.47;6.75;;;;;;;24.63;48.42;98840.91;5032513;28;20491;-77
2021/07/06 03:49:50;;;;;;;7.95;6.78;;;;;;;24.53;48.61;98826.72;5032312;28;20021;-77
2021/07/06 03:52:15;;;;;;;8.40;6.35;;;;;;;24.53;48.74;98830.22;5032642;28;20020;-76
2021/07/06 03:54:41;;;;;;;6.75;6.13;;;;;;;24.97;48.46;98894.81;5032751;28;20104;-75
2021/07/06 03:57:06;;;;;;;8.93;7.10;;;;;;;24.94;48.47;98892.66;5032327;28;20456;-77
2021/07/06 03:59:32;;;;;;;8.40;6.70;;;;;;;24.73;48.59;98856.19;5032404;28;20024;-75
2021/07/06 04:01:57;;;;;;;7.57;6.47;;;;;;;24.70;48.42;98852.16;5032315;28;20548;-76
2021/07/06 04:04:23;;;;;;;7.78;6.88;;;;;;;25.12;48.27;98920.84;5032430;28;20497;-76
2021/07/06 04:06:49;;;;;;;7.47;6.78;;;;;;;24.81;48.58;98895.25;5032379;28;20449;-76
2021/07/06 04:09:14;;;;;;;7.20;6.47;;;;;;;25.07;48.51;98923.63;5031957;28;20025;-76
2021/07/06 04:11:40;;;;;;;8.02;7.15;;;;;;;24.81;48.17;98870.94;5030980;28;20033;-76
2021/07/06 04:14:06;;;;;;;7.60;6.55;;;;;;;25.03;48.12;98895.56;5032227;28;20017;-75
2021/07/06 04:16:31;;;;;;;6.95;6.20;;;;;;;24.94;48.38;98873.75;5032196;28;20460;-75
2021/07/06 04:18:57;;;;;;;7.32;6.60;;;;;;;25.17;48.17;98909.19;5030891;28;20056;-76
2021/07/06 04:21:23;;;;;;;7.45;6.18;;;;;;;24.73;48.36;98848.09;5032075;28;20021;-76
2021/07/06 04:23:48;;;;;;;7.32;6.63;;;;;;;24.92;48.18;98872.44;5032178;28;20055;-77
2021/07/06 04:26:14;;;;;;;8.40;6.47;;;;;;;24.88;47.81;98872.22;5032168;28;20021;-77
2021/07/06 04:28:39;;;;;;;7.20;6.60;;;;;;;24.76;47.79;98849.41;5032088;28;20039;-76
2021/07/06 04:31:05;;;;;;;7.97;7.28;;;;;;;24.70;47.62;98841.38;5031600;28;20512;-75
2021/07/06 04:33:31;;;;;;;7.55;6.85;;;;;;;25.06;47.45;98888.78;5030853;28;20110;-77
2021/07/06 04:35:57;;;;;;;8.93;6.40;;;;;;;25.32;47.62;98938.75;5030649;28;20028;-76
2021/07/06 04:38:22;;;;;;;6.78;5.88;;;;;;;24.99;47.49;98894.53;5032054;28;20025;-76
2021/07/06 04:40:48;;;;;;;7.18;6.50;;;;;;;25.10;47.64;98906.81;5030577;28;20026;-77
2021/07/06 04:43:14;;;;;;;7.20;6.53;;;;;;;24.77;47.23;98851.03;5031570;28;20029;-77
2021/07/06 04:45:39;;;;;;;7.68;6.30;;;;;;;25.12;47.44;98910.03;5031414;28;20028;-76
2021/07/06 04:48:06;;;;;;;7.35;6.43;;;;;;;25.29;47.21;98929.31;5031747;28;20026;-76
2021/07/06 04:50:36;;;;;;;10.38;7.03;;;;;;;25.43;47.04;98944.81;5031649;28;20025;-77
2021/07/06 04:53:03;;;;;;;10.43;6.97;;;;;;;25.07;47.15;98879.59;5031753;28;20025;-76
2021/07/06 04:55:28;;;;;;;9.90;6.60;;;;;;;25.54;47.14;98949.81;5031648;28;20037;-74
2021/07/06 04:57:54;;;;;;;7.25;6.53;;;;;;;25.28;47.10;98906.09;5031522;28;20024;-77
2021/07/06 05:00:20;;;;;;;6.50;6.00;;;;;;;25.57;46.60;98954.63;5031614;28;20578;-76
2021/07/06 05:02:46;;;;;;;8.38;6.00;;;;;;;25.68;46.65;98957.22;5030091;28;20028;-76
2021/07/06 05:05:12;;;;;;;7.05;6.30;;;;;;;25.23;46.71;98884.50;5031299;28;20026;-74
2021/07/06 05:07:38;;;;;;;6.75;6.22;;;;;;;25.33;46.55;98905.22;5031062;28;20091;-78
2021/07/06 05:10:09;;;;;;;9.98;6.20;;;;;;;25.45;46.49;98924.53;5031146;28;20406;-76
2021/07/06 05:12:35;;;;;;;7.25;6.22;;;;;;;25.56;46.73;98936.81;5031150;28;20383;-76
2021/07/06 05:15:02;;;;;;;7.35;6.55;;;;;;;25.88;46.64;98965.06;5030373;28;20490;-76
2021/07/06 05:17:27;;;;;;;10.00;6.18;;;;;;;25.68;46.25;98917.47;5031212;28;20024;-77
2021/07/06 05:19:53;;;;;;;8.70;7.20;;;;;;;25.87;45.98;98941.81;5031197;28;20022;-76
2021/07/06 05:22:19;;;;;;;9.65;7.20;;;;;;;25.68;45.91;98914.78;5031590;28;20021;-76
2021/07/06 05:24:44;;;;;;;7.05;6.40;;;;;;;25.96;45.55;98948.97;5031377;28;20479;-76
2021/07/06 05:27:10;;;;;;;7.63;6.78;;;;;;;25.69;45.70;98907.47;5031157;28;20409;-77
2021/07/06 05:29:35;;;;;;;7.00;6.35;;;;;;;26.12;45.39;98955.00;5031093;28;20041;-75
2021/07/06 05:32:01;;;;;;;10.13;7.55;;;;;;;25.90;45.54;98923.09;5031140;28;20024;-76
2021/07/06 05:34:26;;;;;;;7.35;6.53;;;;;;;26.08;45.87;98962.09;5030924;28;20079;-75
2021/07/06 05:36:53;;;;;;;8.25;6.82;;;;;;;25.77;45.80;98896.78;5030912;28;20029;-76
2021/07/06 05:39:19;;;;;;;8.15;7.20;;;;;;;26.43;45.56;98987.81;5031062;28;20018;-76
2021/07/06 05:41:44;;;;;;;7.90;6.82;;;;;;;26.47;45.40;98993.44;5030846;28;20036;-75
2021/07/06 05:44:11;;;;;;;7.93;6.72;;;;;;;26.28;45.38;98947.44;5031126;28;20087;-76
2021/07/06 05:46:37;;;;;;;7.22;6.50;;;;;;;26.44;45.16;98975.88;5035510;28;20467;-76
2021/07/06 05:49:02;;;;;;;14.85;8.18;;;;;;;26.57;45.08;98985.94;5029675;28;20079;-76
2021/07/06 05:51:28;;;;;;;10.50;7.10;;;;;;;26.72;45.13;99005.75;5041257;28;20037;-77
2021/07/06 05:53:53;;;;;;;8.77;6.97;;;;;;;26.52;45.23;98961.66;5043068;28;20020;-74
2021/07/06 05:56:19;;;;;;;8.02;7.15;;;;;;;26.78;45.09;98982.91;5043827;28;20009;-76
2021/07/06 05:58:48;;;;;;;15.73;6.80;;;;;;;26.93;44.96;99007.03;5042361;28;20064;-75
2021/07/06 06:01:15;;;;;;;7.07;6.43;;;;;;;26.91;44.96;99001.09;5044144;28;20036;-77
2021/07/06 06:03:40;;;;;;;6.63;5.93;;;;;;;26.91;44.98;99009.22;5044620;28;20033;-76
2021/07/06 06:06:07;;;;;;;7.80;5.90;;;;;;;26.55;44.68;98949.44;5042875;28;20490;-77
2021/07/06 06:08:33;;;;;;;7.40;6.72;;;;;;;26.50;44.75;98960.38;5033388;28;20029;-75
2021/07/06 06:10:59;;;;;;;7.80;7.00;;;;;;;26.88;44.92;99009.84;5050704;28;20494;-75
2021/07/06 06:13:24;;;;;;;6.70;6.10;;;;;;;26.46;44.88;98937.69;5050574;28;20032;-74
2021/07/06 06:15:50;;;;;;;7.63;6.88;;;;;;;26.99;44.82;99007.78;5050767;28;20098;-76
2021/07/06 06:18:15;;;;;;;8.90;7.30;;;;;;;26.90;44.80;98985.94;5050498;28;20106;-77
2021/07/06 06:20:40;;;;;;;7.82;7.10;;;;;;;26.99;44.22;98995.03;5050583;28;20017;-77
2021/07/06 06:23:06;;;;;;;7.43;6.70;;;;;;;27.13;43.85;99001.25;5054142;28;20024;-76
2021/07/06 06:25:32;;;;;;;7.15;6.55;;;;;;;27.00;43.80;98969.53;5033030;28;20529;-78
2021/07/06 06:27:58;;;;;;;8.38;6.43;;;;;;;27.00;43.71;98976.88;5052578;28;20025;-77
2021/07/06 06:30:23;;;;;;;7.43;6.68;;;;;;;27.37;43.87;99013.81;5050970;28;20052;-74
2021/07/06 06:32:49;;;;;;;10.07;6.82;;;;;;;27.43;43.65;99020.75;5040766;28;20498;-82
2021/07/06 06:35:15;;;;;;;8.30;7.50;;;;;;;27.17;43.34;98977.88;5036388;28;20454;-81
2021/07/06 06:37:41;;;;;;;7.43;6.72;;;;;;;27.12;42.79;98966.34;5035554;28;20476;-81
2021/07/06 06:40:08;;;;;;;7.93;5.53;;;;;;;27.29;41.88;98965.72;5043362;28;20398;-81
2021/07/06 06:42:34;;;;;;;9.15;6.20;;;;;;;27.47;41.59;98990.03;5040090;28;20065;-82
2021/07/06 06:45:00;;;;;;;7.97;6.40;;;;;;;27.75;41.30;99014.47;5039406;28;20033;-82
2021/07/06 06:47:26;;;;;;;9.15;5.95;;;;;;;27.69;40.82;98996.69;5047803;28;20029;-82
2021/07/06 06:49:51;;;;;;;7.00;6.22;;;;;;;27.38;40.89;98947.66;5043499;28;20525;-83
2021/07/06 06:52:17;;;;;;;8.93;6.22;;;;;;;27.36;40.61;98966.94;5047409;28;20029;-82
2021/07/06 06:54:42;;;;;;;6.13;5.53;;;;;;;27.72;40.79;99020.50;5051894;28;20075;-82
2021/07/06 06:57:08;;;;;;;6.95;6.35;;;;;;;27.59;40.69;98992.25;5033251;28;20474;-82
2021/07/06 06:59:33;;;;;;;6.43;5.82;;;;;;;27.84;40.38;99016.16;5032135;28;20021;-82
2021/07/06 07:02:17;;;;;;;6.25;5.55;;;;;;;27.97;39.64;99016.44;5046557;28;20021;-82
2021/07/06 07:04:52;;;;;;;7.22;5.95;;;;;;;28.01;39.92;99031.78;5043341;28;20039;-82
2021/07/06 07:07:20;;;;;;;9.38;7.28;;;;;;;27.67;39.52;98967.16;5049994;28;20029;-81
2021/07/06 07:09:46;;;;;;;7.30;6.43;;;;;;;27.99;39.43;99023.16;5053400;28;20051;-81
2021/07/06 07:12:13;;;;;;;9.48;6.68;;;;;;;27.72;39.33;98996.88;5053790;28;20021;-81
2021/07/06 07:14:39;;;;;;;8.48;6.60;;;;;;;27.95;39.55;99014.03;5040217;28;20028;-80
2021/07/06 07:17:05;;;;;;;7.57;6.57;;;;;;;28.07;39.45;99027.84;5033706;28;20040;-82
2021/07/06 07:19:31;;;;;;;8.23;6.95;;;;;;;27.90;39.48;98997.03;5044019;28;20028;-81
2021/07/06 07:21:57;;;;;;;7.75;6.47;;;;;;;27.89;39.82;98984.59;5053404;28;20398;-81
2021/07/06 07:24:22;;;;;;;7.07;6.20;;;;;;;27.73;39.40;98967.84;5037261;28;20101;-76
2021/07/06 07:26:49;;;;;;;6.80;6.10;;;;;;;27.72;39.55;98975.19;5052479;28;20021;-74
2021/07/06 07:29:14;;;;;;;7.57;6.80;;;;;;;28.05;39.53;99024.66;5052068;28;20025;-76
2021/07/06 07:31:40;;;;;;;8.80;6.53;;;;;;;27.63;39.68;98963.44;5046687;28;20029;-75
2021/07/06 07:34:05;;;;;;;7.88;6.55;;;;;;;27.59;39.84;98956.19;5052180;28;20021;-74
2021/07/06 07:36:31;;;;;;;8.75;6.47;;;;;;;28.00;39.97;99027.47;5050766;28;20143;-74
2021/07/06 07:38:57;;;;;;;7.53;6.78;;;;;;;28.03;40.61;99029.56;5051864;28;20028;-75
2021/07/06 07:41:23;;;;;;;7.78;7.07;;;;;;;27.74;40.30;98969.44;5052787;28;20032;-82
2021/07/06 07:43:54;;;;;;;7.85;6.43;;;;;;;27.85;40.82;98989.81;5054575;28;20417;-82
2021/07/06 07:46:24;;;;;;;8.73;6.53;;;;;;;27.79;41.03;98972.06;5049817;28;20021;-82
2021/07/06 07:48:50;;;;;;;9.70;6.85;;;;;;;27.95;40.65;98994.22;5039170;28;20386;-81
2021/07/06 07:51:17;;;;;;;7.22;6.15;;;;;;;28.16;40.10;99033.38;5040830;28;20056;-82
2021/07/06 07:53:44;;;;;;;8.30;5.75;;;;;;;27.95;39.85;98996.94;5045315;28;20047;-80
2021/07/06 07:56:10;;;;;;;6.75;5.63;;;;;;;27.92;39.87;98992.13;5042443;28;20029;-81
2021/07/06 07:58:36;;;;;;;6.88;5.53;;;;;;;28.11;39.97;99004.41;5041363;28;20033;-80
2021/07/06 08:01:02;;;;;;;10.43;6.22;;;;;;;28.05;39.55;98985.84;5037146;28;20032;-80
2021/07/06 08:03:28;;;;;;;8.00;5.57;;;;;;;28.51;39.71;99028.28;5037581;28;20036;-80
2021/07/06 08:05:53;;;;;;;11.68;6.40;;;;;;;28.44;39.79;99006.97;5051977;28;20025;-80
2021/07/06 08:08:19;;;;;;;8.27;6.15;;;;;;;28.35;39.57;98982.47;5047408;28;20021;-81
2021/07/06 08:10:52;;;;;;;7.47;6.88;;;;;;;28.47;39.59;99009.88;5037685;28;20430;-82
2021/07/06 08:13:21;;;;;;;8.95;6.38;;;;;;;28.33;39.99;98990.13;5046506;28;20028;-81
2021/07/06 08:15:47;;;;;;;6.68;6.07;;;;;;;28.32;40.05;98998.56;5042286;28;20029;-82
2021/07/06 08:18:13;;;;;;;7.88;7.07;;;;;;;27.89;40.65;98958.25;5044588;28;20032;-83
2021/07/06 08:20:38;;;;;;;10.18;6.03;;;;;;;28.46;40.76;99051.72;5050759;28;20072;-81
2021/07/06 08:23:03;;;;;;;8.38;6.55;;;;;;;28.30;40.65;99023.31;5031393;28;20045;-74
2021/07/06 08:25:29;;;;;;;7.28;6.53;;;;;;;28.17;40.82;99005.91;5032734;28;20061;-74
2021/07/06 08:27:54;;;;;;;9.95;6.25;;;;;;;28.30;40.83;99036.91;5033469;28;20032;-77
2021/07/06 08:30:20;;;;;;;9.93;6.38;;;;;;;28.00;40.99;99002.25;5041490;28;20037;-75
2021/07/06 08:32:45;;;;;;;8.02;6.05;;;;;;;27.87;40.92;98974.03;5029249;28;20033;-76
2021/07/06 08:35:11;;;;;;;8.02;6.78;;;;;;;28.03;41.05;98998.91;5030959;28;20021;-74
2021/07/06 08:37:37;;;;;;;6.65;6.03;;;;;;;28.00;40.79;98988.69;5030820;28;20391;-75
2021/07/06 08:40:05;;;;;;;7.55;6.13;;;;;;;28.45;40.32;99028.38;5031302;28;20033;-76
2021/07/06 08:42:30;;;;;;;8.85;6.18;;;;;;;28.57;40.66;99029.75;5031435;28;20057;-74
2021/07/06 08:44:56;;;;;;;8.93;6.78;;;;;;;28.50;40.45;99010.38;5031195;28;20056;-75
2021/07/06 08:47:23;;;;;;;10.68;7.70;;;;;;;28.41;39.99;98986.66;5031158;28;20049;-76
2021/07/06 08:49:51;;;;;;;10.00;6.97;;;;;;;28.48;39.38;98976.19;5030092;28;20033;-75
2021/07/06 08:52:18;;;;;;;10.50;5.75;;;;;;;28.40;39.22;98974.19;5037619;28;20509;-76
2021/07/06 08:54:45;;;;;;;8.63;5.25;;;;;;;28.71;38.57;98987.00;5043118;28;20021;-76
2021/07/06 08:57:10;;;;;;;6.47;5.00;;;;;;;28.97;38.11;98992.63;5038456;28;20014;-76
2021/07/06 08:59:37;;;;;;;6.97;5.90;;;;;;;29.40;38.01;99028.97;5037927;28;20092;-75
2021/07/06 09:02:03;;;;;;;4.40;4.00;;;;;;;29.48;37.11;99034.78;5045343;28;20029;-79
2021/07/06 09:05:04;;;;;;;4.80;4.28;;;;;;;29.19;36.11;98962.69;5043655;28;20021;-79
2021/07/06 09:07:41;;;;;;;4.50;3.80;;;;;;;29.64;36.12;99027.78;5001424;28;20025;-79
2021/07/06 09:10:21;;;;;;;4.38;3.97;;;;;;;29.90;35.60;99038.75;5034270;28;20037;-81
2021/07/06 09:12:47;;;;;;;5.23;4.67;;;;;;;29.99;35.22;99015.06;5034475;28;20029;-81
2021/07/06 09:15:23;;;;;;;6.30;4.03;;;;;;;30.42;33.24;99041.56;5049390;28;20271;-79
2021/07/06 09:18:17;;;;;;;6.72;4.50;;;;;;;30.44;33.67;99039.31;5046809;28;20021;-79
2021/07/06 09:21:02;;;;;;;5.90;4.63;;;;;;;30.46;34.11;99050.69;5042191;28;20569;-81
2021/07/06 09:23:34;;;;;;;7.20;4.97;;;;;;;30.41;34.07;99037.22;5059384;28;20501;-73
2021/07/06 09:26:06;;;;;;;5.93;3.88;;;;;;;30.45;33.95;99046.34;5037438;28;20029;-80
2021/07/06 09:28:36;;;;;;;5.30;4.50;;;;;;;30.36;33.16;99021.84;5040994;28;20048;-79
2021/07/06 09:31:20;;;;;;;4.43;4.03;;;;;;;30.69;33.69;99046.72;5037525;28;20103;-80
2021/07/06 09:34:01;;;;;;;3.80;3.50;;;;;;;30.89;33.08;99037.84;5036868;28;20464;-79
2021/07/06 09:36:29;;;;;;;16.63;4.55;;;;;;;31.09;32.82;99030.09;5040401;28;20021;-79
2021/07/06 09:39:20;;;;;;;7.10;3.42;;;;;;;31.00;32.14;98981.03;5051884;28;20432;-79
2021/07/06 09:41:58;;;;;;;4.25;3.42;;;;;;;31.49;32.42;99036.88;5031728;28;20036;-80
2021/07/06 09:44:25;;;;;;;4.25;3.63;;;;;;;31.71;31.62;99029.59;5030544;28;20490;-80
2021/07/06 09:46:57;;;;;;;5.55;3.15;;;;;;;31.79;31.33;99034.19;5043755;28;20041;-80
2021/07/06 09:49:25;;;;;;;8.32;4.35;;;;;;;31.78;30.87;99008.03;5033525;28;20033;-80
2021/07/06 09:51:52;;;;;;;5.15;3.30;;;;;;;31.90;31.12;99022.53;5030717;28;20497;-78
2021/07/06 09:54:30;;;;;;;5.15;4.65;;;;;;;31.73;31.19;99017.19;5041368;28;20087;-81
2021/07/06 09:57:23;;;;;;;8.43;4.18;;;;;;;31.97;30.97;99038.44;5049908;28;20032;-81
2021/07/06 10:00:08;;;;;;;7.57;4.85;;;;;;;32.31;30.44;99050.25;5030696;28;20029;-80
2021/07/06 10:02:35;;;;;;;10.45;3.92;;;;;;;32.46;30.42;99055.13;5033275;28;20026;-79
2021/07/06 10:05:04;;;;;;;6.45;3.97;;;;;;;32.48;30.49;99011.84;5039766;28;20043;-79
2021/07/06 10:07:31;;;;;;;7.45;4.65;;;;;;;32.85;30.20;99043.69;5049218;28;20124;-79
2021/07/06 10:09:57;;;;;;;8.13;4.30;;;;;;;32.69;30.28;99026.28;5041802;28;20475;-81
2021/07/06 10:12:24;;;;;;;6.22;4.97;;;;;;;32.76;30.22;99058.56;5054294;28;20447;-79
2021/07/06 10:14:50;;;;;;;8.32;5.38;;;;;;;32.41;30.51;99045.19;5041952;28;20029;-79
2021/07/06 10:17:16;;;;;;;6.75;4.40;;;;;;;32.18;30.86;99047.44;5033051;28;20036;-80
2021/07/06 10:19:44;;;;;;;13.25;7.82;;;;;;;32.05;31.16;99032.13;5042233;28;20159;-79
2021/07/06 10:22:11;;;;;;;12.38;7.70;;;;;;;32.10;31.28;99039.31;5042107;28;20163;-80
2021/07/06 10:24:45;;;;;;;12.27;6.55;;;;;;;31.98;31.18;99012.72;5031796;28;20032;-73
2021/07/06 10:27:20;;;;;;;5.20;4.70;;;;;;;31.95;31.06;98999.72;5043601;28;20028;-75
2021/07/06 10:29:45;;;;;;;6.25;4.35;;;;;;;31.64;31.45;98983.66;5032389;28;20116;-74
2021/07/06 10:32:41;;;;;;;10.43;6.75;;;;;;;31.47;32.13;99000.94;5047405;28;20115;-75
2021/07/06 10:35:09;;;;;;;7.03;5.45;;;;;;;31.56;32.14;99048.09;5055005;28;20029;-75
2021/07/06 10:37:35;;;;;;;7.32;4.88;;;;;;;31.79;31.85;99048.63;5042982;28;20036;-75
2021/07/06 10:40:19;;;;;;;6.93;3.50;;;;;;;31.99;30.83;98989.75;5048115;28;20414;-76
2021/07/06 10:42:46;;;;;;;5.35;3.95;;;;;;;32.62;30.59;99014.28;5063153;28;20478;-74
2021/07/06 10:45:23;;;;;;;5.97;4.55;;;;;;;32.34;30.54;98978.56;5035855;28;20104;-74
2021/07/06 10:47:51;;;;;;;4.93;3.80;;;;;;;33.09;29.94;99032.00;5061350;28;20094;-75
2021/07/06 10:50:31;;;;;;;4.85;3.55;;;;;;;32.89;29.40;99037.56;5073176;28;20477;-72
2021/07/06 10:53:23;;;;;;;6.38;5.72;;;;;;;32.79;29.00;99038.78;5034594;28;20514;-73
2021/07/06 10:56:11;;;;;;;4.47;4.00;;;;;;;32.76;29.07;99031.22;5034507;28;20457;-74
2021/07/06 10:58:58;;;;;;;4.43;3.70;;;;;;;32.96;28.90;99038.59;5049507;28;20047;-74
2021/07/06 11:01:44;;;;;;;6.22;4.75;;;;;;;33.20;29.21;99028.84;5052283;28;20100;-75
2021/07/06 11:04:11;;;;;;;6.45;4.57;;;;;;;33.39;29.38;99004.47;5046902;28;20122;-74
2021/07/06 11:06:46;;;;;;;7.90;4.30;;;;;;;33.34;29.13;99026.59;5045899;28;20032;-73
2021/07/06 11:09:13;;;;;;;4.85;3.95;;;;;;;33.31;29.43;99028.06;5050814;28;20036;-76
2021/07/06 11:11:39;;;;;;;6.72;4.00;;;;;;;32.52;29.40;98863.25;5053197;28;20036;-77
2021/07/06 11:14:24;;;;;;;6.60;3.50;;;;;;;33.49;28.53;98930.13;5045498;28;20437;-75
2021/07/06 11:17:00;;;;;;;5.68;4.00;;;;;;;34.45;27.52;99023.41;5039202;28;20083;-75
2021/07/06 11:19:40;;;;;;;5.20;4.68;;;;;;;34.50;28.77;99023.16;5070309;28;20020;-74
2021/07/06 11:22:09;;;;;;;6.07;5.47;;;;;;;34.13;28.61;99016.16;5051496;28;20089;-74
2021/07/06 11:24:46;;;;;;;7.32;3.72;;;;;;;34.10;28.07;99020.41;5035682;28;20026;-75
2021/07/06 11:27:49;;;;;;;6.07;4.20;;;;;;;34.17;28.26;99026.09;5032680;28;20030;-75
2021/07/06 11:30:48;;;;;;;6.03;4.63;;;;;;;34.56;27.57;99020.97;5033121;28;20029;-75
2021/07/06 11:33:33;;;;;;;5.50;3.40;;;;;;;34.93;26.71;99025.16;5037448;28;20476;-76
2021/07/06 11:36:06;;;;;;;5.20;3.45;;;;;;;35.03;26.47;98996.41;5046328;28;20494;-75